Time;durP1;ratioP1;P1;durP2;ratioP2;P2;SDS_P1;SDS_P2;PMS_P1;PMS_P2;Temp;Humidity;BMP_temperature;BMP_pressure;BME280_temperature;BME280_humidity;BME280_pressure;Samples;Min_cycle;Max_cycle;Signal;HPM_P1;HPM_P2
2024/03/01 00:04:26;;;;;;;9.45;1.45;;;;;;;;;;5178958;23;20097;-96
2024/03/01 00:06:51;;;;;;;10.55;1.95;;;;;;;;;;5014775;28;20030;-96
2024/03/01 00:09:17;;;;;;;12.48;1.85;;;;;;;;;;5014245;28;20057;-96
2024/03/01 00:11:43;;;;;;;14.98;2.20;;;;;;;;;;5013556;28;20018;-96
2024/03/01 00:14:08;;;;;;;7.25;1.98;;;;;;;;;;5015119;28;20022;-96
2024/03/01 00:16:33;;;;;;;12.07;2.38;;;;;;;;;;5013783;28;20018;-96
2024/03/01 00:18:59;;;;;;;8.70;2.00;;;;;;;;;;5014373;28;20028;-96
2024/03/01 00:21:24;;;;;;;12.90;2.95;;;;;;;;;;5013214;28;20030;-96
2024/03/01 00:23:49;;;;;;;14.27;2.40;;;;;;;;;;5013709;28;20121;-96
2024/03/01 00:26:15;;;;;;;6.75;1.25;;;;;;;;;;5014909;28;20020;-96
2024/03/01 00:28:40;;;;;;;8.80;1.73;;;;;;;;;;5016426;28;20093;-96
2024/03/01 00:31:06;;;;;;;10.30;1.67;;;;;;;;;;5016142;28;20026;-96
2024/03/01 00:33:31;;;;;;;8.15;1.52;;;;;;;;;;5013794;28;20025;-96
2024/03/01 00:35:57;;;;;;;12.98;1.90;;;;;;;;;;5015913;28;20023;-96
2024/03/01 00:38:22;;;;;;;7.15;1.50;;;;;;;;;;5015091;28;20025;-96
2024/03/01 00:40:47;;;;;;;6.28;1.30;;;;;;;;;;5016692;28;20030;-96
2024/03/01 00:43:13;;;;;;;6.75;1.45;;;;;;;;;;5015455;28;20090;-96
2024/03/01 00:45:39;;;;;;;4.40;1.13;;;;;;;;;;5017163;28;20038;-96
2024/03/01 00:50:40;;;;;;;8.73;1.30;;;;;;;;;;5245397;23;20054;-96
2024/03/01 00:53:06;;;;;;;10.63;1.52;;;;;;;;;;5006360;28;20036;-96
2024/03/01 00:55:31;;;;;;;8.65;1.30;;;;;;;;;;5005237;28;20469;-96
2024/03/01 00:57:57;;;;;;;7.25;1.17;;;;;;;;;;5005567;28;20014;-96
2024/03/01 01:00:22;;;;;;;6.75;1.20;;;;;;;;;;5006792;28;20014;-96
2024/03/01 01:02:48;;;;;;;3.53;1.05;;;;;;;;;;5003362;28;20042;-96
2024/03/01 01:05:13;;;;;;;8.02;1.23;;;;;;;;;;5003201;28;20448;-96
2024/03/01 01:07:39;;;;;;;7.15;1.30;;;;;;;;;;5005042;28;20022;-96
2024/03/01 01:10:04;;;;;;;4.75;1.10;;;;;;;;;;5004617;28;20049;-95
2024/03/01 01:12:30;;;;;;;8.27;1.67;;;;;;;;;;5003047;28;20084;-96
2024/03/01 01:14:56;;;;;;;5.95;1.00;;;;;;;;;;5003435;28;20018;-96
2024/03/01 01:17:21;;;;;;;11.27;1.10;;;;;;;;;;5004224;28;20026;-96
2024/03/01 01:19:47;;;;;;;8.90;1.20;;;;;;;;;;5002726;28;20023;-96
2024/03/01 01:22:12;;;;;;;6.10;1.05;;;;;;;;;;5000708;28;20023;-96
2024/03/01 01:24:37;;;;;;;3.80;1.30;;;;;;;;;;5000490;28;20030;-96
2024/03/01 01:27:03;;;;;;;18.55;1.48;;;;;;;;;;5000437;28;20030;-96
2024/03/01 01:29:28;;;;;;;7.78;1.20;;;;;;;;;;4998077;28;20015;-96
2024/03/01 01:31:53;;;;;;;7.68;1.20;;;;;;;;;;4997618;28;20041;-95
2024/03/01 01:34:19;;;;;;;14.75;2.55;;;;;;;;;;4998586;28;20023;-96
2024/03/01 01:36:44;;;;;;;4.93;0.95;;;;;;;;;;5000351;28;20048;-95
2024/03/01 01:39:10;;;;;;;14.38;2.28;;;;;;;;;;5000629;28;20025;-96
2024/03/01 01:41:35;;;;;;;3.35;0.88;;;;;;;;;;5003972;28;20086;-96
2024/03/01 01:44:01;;;;;;;6.80;1.13;;;;;;;;;;5006138;28;20042;-96
2024/03/01 01:46:27;;;;;;;10.07;1.50;;;;;;;;;;5008542;28;20064;-96
2024/03/01 01:48:52;;;;;;;10.65;1.20;;;;;;;;;;5007327;28;20014;-96
2024/03/01 01:51:18;;;;;;;5.53;1.35;;;;;;;;;;5004556;28;20026;-96
2024/03/01 01:53:43;;;;;;;4.55;1.02;;;;;;;;;;5001167;28;20104;-96
2024/03/01 01:56:09;;;;;;;6.40;1.40;;;;;;;;;;4999339;28;20390;-96
2024/03/01 01:58:34;;;;;;;7.50;1.63;;;;;;;;;;4999613;28;20022;-95
2024/03/01 02:01:07;;;;;;;4.80;1.40;;;;;;;;;;5002184;28;20026;-96
2024/03/01 02:03:34;;;;;;;6.80;1.45;;;;;;;;;;5004352;28;20018;-96
2024/03/01 02:06:01;;;;;;;7.72;1.40;;;;;;;;;;5003130;28;20037;-96
2024/03/01 02:08:26;;;;;;;11.35;1.73;;;;;;;;;;5001211;28;20038;-96
2024/03/01 02:10:51;;;;;;;16.38;2.03;;;;;;;;;;5003109;28;20085;-96
2024/03/01 02:13:18;;;;;;;11.63;1.58;;;;;;;;;;5003855;28;20108;-96
2024/03/01 02:15:43;;;;;;;7.60;1.00;;;;;;;;;;5000902;28;20373;-96
2024/03/01 02:18:09;;;;;;;11.32;1.40;;;;;;;;;;5001392;28;20028;-96
2024/03/01 02:20:35;;;;;;;11.10;1.73;;;;;;;;;;5001762;28;20022;-96
2024/03/01 02:23:03;;;;;;;10.40;1.75;;;;;;;;;;5000648;28;20022;-96
2024/03/01 02:25:28;;;;;;;14.35;1.38;;;;;;;;;;4999631;28;20122;-96
2024/03/01 02:27:54;;;;;;;12.50;2.58;;;;;;;;;;4999949;28;20062;-96
2024/03/01 02:30:19;;;;;;;13.38;1.42;;;;;;;;;;4999917;28;20014;-96
2024/03/01 02:32:46;;;;;;;12.95;2.72;;;;;;;;;;4999484;28;20493;-96
2024/03/01 02:35:12;;;;;;;9.57;1.40;;;;;;;;;;4998983;28;20022;-95
2024/03/01 02:37:37;;;;;;;6.50;1.17;;;;;;;;;;4999685;28;20022;-96
2024/03/01 02:40:04;;;;;;;11.35;1.63;;;;;;;;;;5001021;28;20022;-96
2024/03/01 02:42:30;;;;;;;14.90;1.75;;;;;;;;;;5000175;28;20086;-96
2024/03/01 02:44:55;;;;;;;11.32;1.67;;;;;;;;;;5000175;28;20027;-96
2024/03/01 02:47:21;;;;;;;12.45;2.22;;;;;;;;;;4998854;28;20105;-96
2024/03/01 02:49:46;;;;;;;9.90;1.40;;;;;;;;;;4997959;28;20439;-96
2024/03/01 02:52:11;;;;;;;12.27;1.70;;;;;;;;;;4998301;28;20081;-96
2024/03/01 02:54:36;;;;;;;11.60;1.55;;;;;;;;;;4997329;28;20022;-96
2024/03/01 02:57:02;;;;;;;13.63;1.80;;;;;;;;;;4997228;28;20373;-96
2024/03/01 02:59:27;;;;;;;15.43;1.60;;;;;;;;;;4996542;28;20022;-96
2024/03/01 03:01:52;;;;;;;11.15;1.83;;;;;;;;;;4996541;28;20022;-96
2024/03/01 03:04:18;;;;;;;10.80;1.40;;;;;;;;;;4996282;28;20022;-96
2024/03/01 03:06:43;;;;;;;13.40;2.40;;;;;;;;;;4996329;28;20034;-96
2024/03/01 03:09:09;;;;;;;11.23;1.45;;;;;;;;;;4995978;28;20038;-96
2024/03/01 03:11:38;;;;;;;9.32;0.98;;;;;;;;;;4997784;28;20057;-96
2024/03/01 03:14:03;;;;;;;12.07;2.00;;;;;;;;;;4996839;28;20018;-96
2024/03/01 03:16:28;;;;;;;8.57;1.27;;;;;;;;;;4995880;28;20028;-96
2024/03/01 03:18:54;;;;;;;11.32;1.27;;;;;;;;;;4996373;28;20088;-96
2024/03/01 03:21:19;;;;;;;7.55;1.15;;;;;;;;;;4995709;28;20259;-96
2024/03/01 03:23:45;;;;;;;7.82;2.65;;;;;;;;;;4995366;28;20014;-95
2024/03/01 03:26:11;;;;;;;14.05;1.60;;;;;;;;;;4994704;28;20026;-96
2024/03/01 03:28:36;;;;;;;11.00;1.40;;;;;;;;;;4994716;28;20025;-95
2024/03/01 03:31:02;;;;;;;9.95;1.40;;;;;;;;;;4995363;28;20460;-96
2024/03/01 03:33:27;;;;;;;12.38;1.52;;;;;;;;;;4996913;28;20038;-96
2024/03/01 03:35:52;;;;;;;10.65;1.70;;;;;;;;;;4999722;28;20026;-96
2024/03/01 03:38:17;;;;;;;13.30;1.35;;;;;;;;;;4997003;28;20018;-96
2024/03/01 03:40:44;;;;;;;17.40;1.50;;;;;;;;;;4996871;28;20029;-96
2024/03/01 03:43:10;;;;;;;11.15;1.65;;;;;;;;;;4997775;28;20018;-96
2024/03/01 03:45:35;;;;;;;14.98;2.72;;;;;;;;;;4996500;28;20029;-95
2024/03/01 03:48:00;;;;;;;9.18;1.38;;;;;;;;;;4994675;28;20607;-95
2024/03/01 03:50:26;;;;;;;18.88;2.30;;;;;;;;;;4995032;28;20033;-96
2024/03/01 03:52:51;;;;;;;9.77;2.85;;;;;;;;;;4995218;28;20112;-96
2024/03/01 03:55:16;;;;;;;15.65;1.75;;;;;;;;;;4994812;28;20026;-96
2024/03/01 03:57:42;;;;;;;15.70;3.50;;;;;;;;;;4995463;28;20010;-96
2024/03/01 04:00:09;;;;;;;14.70;2.45;;;;;;;;;;4994483;28;20472;-96
2024/03/01 04:02:34;;;;;;;10.63;1.80;;;;;;;;;;4994181;28;20018;-96
2024/03/01 04:05:01;;;;;;;11.73;1.65;;;;;;;;;;4994285;28;20494;-96
2024/03/01 04:07:26;;;;;;;7.30;1.20;;;;;;;;;;4993636;28;20049;-96
2024/03/01 04:09:52;;;;;;;13.68;1.83;;;;;;;;;;4994084;28;20010;-96
2024/03/01 04:12:17;;;;;;;15.90;2.67;;;;;;;;;;4994044;28;20030;-95
2024/03/01 04:14:42;;;;;;;18.15;3.53;;;;;;;;;;4993535;28;20104;-95
2024/03/01 04:17:10;;;;;;;13.82;1.58;;;;;;;;;;4993256;28;20472;-95
2024/03/01 04:19:36;;;;;;;10.35;1.50;;;;;;;;;;4993302;28;20560;-94
2024/03/01 04:22:01;;;;;;;13.35;1.60;;;;;;;;;;4988609;28;20108;-94
2024/03/01 04:24:26;;;;;;;9.32;2.00;;;;;;;;;;4982510;28;20161;-93
2024/03/01 04:26:52;;;;;;;21.47;2.40;;;;;;;;;;4972297;28;20027;-94
2024/03/01 04:29:19;;;;;;;26.65;2.65;;;;;;;;;;4988607;28;20693;-92
2024/03/01 04:31:48;;;;;;;19.83;1.92;;;;;;;;;;4992914;28;20015;-92
2024/03/01 04:34:14;;;;;;;21.85;2.72;;;;;;;;;;4991251;28;20018;-92
2024/03/01 04:36:39;;;;;;;22.80;2.67;;;;;;;;;;4992370;28;20011;-91
2024/03/01 04:39:05;;;;;;;22.70;2.92;;;;;;;;;;4992476;28;20030;-90
2024/03/01 04:41:31;;;;;;;24.40;3.38;;;;;;;;;;4975906;28;20069;-90
2024/03/01 04:43:56;;;;;;;18.05;2.42;;;;;;;;;;4973119;28;20030;-90
2024/03/01 04:46:21;;;;;;;25.95;2.58;;;;;;;;;;4972932;28;20073;-91
2024/03/01 04:48:47;;;;;;;17.50;2.40;;;;;;;;;;4972867;28;20023;-91
2024/03/01 04:51:12;;;;;;;15.57;2.13;;;;;;;;;;4973092;28;20023;-92
2024/03/01 04:53:38;;;;;;;15.13;2.25;;;;;;;;;;4971801;28;20019;-91
2024/03/01 04:56:03;;;;;;;8.10;1.15;;;;;;;;;;4972778;28;20057;-90
2024/03/01 04:58:29;;;;;;;18.27;1.20;;;;;;;;;;4972874;28;20072;-91
2024/03/01 05:00:54;;;;;;;13.90;1.57;;;;;;;;;;4972818;28;20065;-90
2024/03/01 05:03:19;;;;;;;21.48;1.77;;;;;;;;;;4972577;28;20267;-91
2024/03/01 05:05:44;;;;;;;8.55;1.30;;;;;;;;;;4971206;28;20027;-91
2024/03/01 05:08:10;;;;;;;11.40;1.20;;;;;;;;;;4973283;28;20022;-92
2024/03/01 05:10:36;;;;;;;10.00;0.93;;;;;;;;;;4973011;28;20066;-93
2024/03/01 05:13:02;;;;;;;4.60;0.65;;;;;;;;;;4972002;28;20027;-93
2024/03/01 05:15:27;;;;;;;6.47;0.80;;;;;;;;;;4973168;28;20025;-93
2024/03/01 05:17:52;;;;;;;11.25;0.85;;;;;;;;;;4972131;28;20019;-93
2024/03/01 05:20:19;;;;;;;5.38;0.73;;;;;;;;;;4976614;28;20015;-92
2024/03/01 05:22:44;;;;;;;6.72;0.70;;;;;;;;;;4977083;28;20098;-92
2024/03/01 05:25:15;;;;;;;13.45;1.15;;;;;;;;;;4976810;28;20122;-92
2024/03/01 05:27:41;;;;;;;10.77;1.05;;;;;;;;;;4976807;28;20073;-92
2024/03/01 05:30:08;;;;;;;12.32;0.88;;;;;;;;;;4976703;28;20026;-92
2024/03/01 05:32:34;;;;;;;4.60;0.93;;;;;;;;;;4976477;28;20023;-93
2024/03/01 05:34:59;;;;;;;14.52;2.05;;;;;;;;;;4974202;28;20073;-91
2024/03/01 05:37:24;;;;;;;9.55;1.27;;;;;;;;;;4976268;28;20030;-90
2024/03/01 05:39:50;;;;;;;2.38;0.30;;;;;;;;;;4976376;28;20453;-91
2024/03/01 05:42:16;;;;;;;6.13;1.40;;;;;;;;;;4975312;28;20491;-92
2024/03/01 05:44:42;;;;;;;1.15;0.30;;;;;;;;;;4976439;28;20010;-92
2024/03/01 05:47:08;;;;;;;3.65;0.40;;;;;;;;;;4975204;28;20049;-94
2024/03/01 05:49:33;;;;;;;16.35;0.90;;;;;;;;;;4975354;28;20023;-92
2024/03/01 05:51:58;;;;;;;8.02;0.63;;;;;;;;;;4975441;28;20165;-94
2024/03/01 05:54:24;;;;;;;4.50;0.30;;;;;;;;;;4975507;28;20026;-93
2024/03/01 05:56:49;;;;;;;9.73;0.50;;;;;;;;;;4975328;28;20025;-92
2024/03/01 05:59:14;;;;;;;10.55;0.63;;;;;;;;;;4974987;28;20053;-92
2024/03/01 06:01:40;;;;;;;13.45;0.95;;;;;;;;;;4974779;28;20014;-92
2024/03/01 06:04:10;;;;;;;10.90;0.43;;;;;;;;;;4974984;28;20031;-92
2024/03/01 06:06:35;;;;;;;4.50;0.43;;;;;;;;;;4974436;28;20128;-91
2024/03/01 06:09:00;;;;;;;5.40;0.38;;;;;;;;;;4974480;28;20484;-91
2024/03/01 06:11:25;;;;;;;3.73;0.60;;;;;;;;;;4974411;28;20477;-92
2024/03/01 06:13:51;;;;;;;6.37;0.77;;;;;;;;;;4974483;28;20261;-91
2024/03/01 06:16:16;;;;;;;3.38;0.40;;;;;;;;;;4974533;28;20272;-91
2024/03/01 06:18:41;;;;;;;1.73;0.93;;;;;;;;;;4975471;28;20019;-90
2024/03/01 06:21:06;;;;;;;4.70;0.80;;;;;;;;;;4975360;28;20101;-90
2024/03/01 06:23:32;;;;;;;4.97;0.70;;;;;;;;;;4975357;28;20523;-89
2024/03/01 06:25:57;;;;;;;10.35;1.67;;;;;;;;;;4975179;28;20473;-89
2024/03/01 06:28:22;;;;;;;9.07;0.70;;;;;;;;;;4975228;28;20019;-90
2024/03/01 06:30:48;;;;;;;7.93;0.80;;;;;;;;;;4974668;28;20245;-89
2024/03/01 06:33:13;;;;;;;2.50;0.88;;;;;;;;;;4975206;28;20023;-90
2024/03/01 06:35:38;;;;;;;5.47;1.50;;;;;;;;;;4975127;28;20033;-90
2024/03/01 06:38:03;;;;;;;9.75;1.05;;;;;;;;;;4975163;28;20019;-89
2024/03/01 06:40:29;;;;;;;10.77;1.73;;;;;;;;;;4975160;28;20480;-90
2024/03/01 06:42:54;;;;;;;10.55;1.10;;;;;;;;;;4973755;28;20052;-90
2024/03/01 06:45:19;;;;;;;6.85;1.02;;;;;;;;;;4974855;28;20018;-90
2024/03/01 06:47:45;;;;;;;10.93;1.65;;;;;;;;;;4975008;28;20450;-91
2024/03/01 06:50:11;;;;;;;8.75;1.48;;;;;;;;;;4973527;28;20023;-90
2024/03/01 06:52:36;;;;;;;12.32;2.00;;;;;;;;;;4975423;28;20050;-91
2024/03/01 06:55:01;;;;;;;9.63;1.13;;;;;;;;;;4974426;28;20019;-92
2024/03/01 06:57:27;;;;;;;6.95;0.80;;;;;;;;;;4993264;28;20274;-92
2024/03/01 06:59:52;;;;;;;8.32;1.40;;;;;;;;;;4993082;28;20384;-91
2024/03/01 07:02:17;;;;;;;5.63;1.02;;;;;;;;;;4992166;28;20057;-91
2024/03/01 07:04:42;;;;;;;4.78;0.88;;;;;;;;;;4993596;28;20021;-90
2024/03/01 07:07:07;;;;;;;6.20;0.70;;;;;;;;;;4986156;28;20031;-92
2024/03/01 07:09:33;;;;;;;6.95;0.70;;;;;;;;;;4972536;28;20249;-91
2024/03/01 07:11:58;;;;;;;3.72;0.55;;;;;;;;;;4973705;28;20034;-92
2024/03/01 07:14:23;;;;;;;2.78;0.35;;;;;;;;;;4991943;28;20588;-92
2024/03/01 07:16:48;;;;;;;1.48;0.47;;;;;;;;;;4993391;28;20561;-90
2024/03/01 07:19:14;;;;;;;4.53;0.73;;;;;;;;;;4993932;28;20598;-93
2024/03/01 07:21:39;;;;;;;3.15;0.30;;;;;;;;;;4994143;28;20018;-93
2024/03/01 07:24:04;;;;;;;2.08;0.40;;;;;;;;;;4992509;28;20023;-91
2024/03/01 07:26:29;;;;;;;4.25;0.30;;;;;;;;;;4992336;28;20068;-91
2024/03/01 07:28:56;;;;;;;0.98;0.40;;;;;;;;;;4992555;28;20022;-95
2024/03/01 07:31:21;;;;;;;0.93;0.20;;;;;;;;;;4995208;28;20026;-94
2024/03/01 07:33:46;;;;;;;4.70;0.20;;;;;;;;;;4995527;28;20026;-95
2024/03/01 07:36:12;;;;;;;1.58;0.28;;;;;;;;;;4993472;28;20038;-95
2024/03/01 07:38:38;;;;;;;1.02;0.20;;;;;;;;;;4992680;28;20029;-95
2024/03/01 07:41:03;;;;;;;1.83;0.17;;;;;;;;;;4992936;28;20092;-92
2024/03/01 07:43:29;;;;;;;2.63;0.15;;;;;;;;;;4992786;28;20033;-96
2024/03/01 07:46:06;;;;;;;1.83;0.25;;;;;;;;;;4995207;28;20033;-95
2024/03/01 07:48:32;;;;;;;4.20;0.40;;;;;;;;;;5004267;28;20064;-91
2024/03/01 07:50:57;;;;;;;5.60;0.38;;;;;;;;;;4992700;28;20025;-91
2024/03/01 07:53:23;;;;;;;2.90;0.30;;;;;;;;;;4991467;28;20018;-93
2024/03/01 07:55:48;;;;;;;2.78;0.30;;;;;;;;;;4993421;28;20256;-92
2024/03/01 07:58:13;;;;;;;3.22;0.30;;;;;;;;;;4977473;28;20107;-92
2024/03/01 08:00:38;;;;;;;0.98;0.28;;;;;;;;;;4986359;28;20034;-93
2024/03/01 08:03:08;;;;;;;0.45;0.20;;;;;;;;;;4991974;28;20018;-92
2024/03/01 08:05:34;;;;;;;2.13;0.20;;;;;;;;;;4996335;28;20028;-94
2024/03/01 08:07:59;;;;;;;0.47;0.20;;;;;;;;;;5011110;28;20468;-92
2024/03/01 08:10:25;;;;;;;0.28;0.10;;;;;;;;;;4986450;28;20031;-92
2024/03/01 08:12:51;;;;;;;3.33;0.32;;;;;;;;;;4973760;28;20015;-93
2024/03/01 08:15:22;;;;;;;3.60;0.40;;;;;;;;;;4973479;28;20058;-92
2024/03/01 08:17:47;;;;;;;1.73;0.30;;;;;;;;;;4985778;28;20061;-92
2024/03/01 08:20:25;;;;;;;1.50;0.30;;;;;;;;;;4973763;28;20043;-93
2024/03/01 08:22:53;;;;;;;1.73;0.30;;;;;;;;;;4974084;28;20572;-92
2024/03/01 08:25:18;;;;;;;0.75;0.20;;;;;;;;;;4992006;28;20054;-94
2024/03/01 08:27:43;;;;;;;1.48;0.40;;;;;;;;;;4991796;28;20077;-95
2024/03/01 08:30:22;;;;;;;1.15;0.22;;;;;;;;;;4993606;28;20014;-94
2024/03/01 08:32:48;;;;;;;1.85;0.45;;;;;;;;;;5003508;28;20089;-95
2024/03/01 08:35:15;;;;;;;2.10;0.40;;;;;;;;;;4991912;28;20029;-94
2024/03/01 08:37:40;;;;;;;3.15;0.32;;;;;;;;;;4993263;28;20034;-90
2024/03/01 08:40:25;;;;;;;2.85;0.38;;;;;;;;;;4993504;28;20026;-93
2024/03/01 08:42:51;;;;;;;0.55;0.28;;;;;;;;;;4993041;28;20014;-94
2024/03/01 08:45:25;;;;;;;2.72;0.30;;;;;;;;;;4993689;28;20437;-92
2024/03/01 08:47:58;;;;;;;3.20;0.55;;;;;;;;;;4992267;28;20038;-94
2024/03/01 08:50:27;;;;;;;1.55;0.30;;;;;;;;;;4993221;28;20026;-94
2024/03/01 08:52:52;;;;;;;3.83;0.30;;;;;;;;;;4993956;28;20141;-96
2024/03/01 08:55:18;;;;;;;0.50;0.13;;;;;;;;;;4995694;28;20539;-94
2024/03/01 08:57:49;;;;;;;1.10;0.10;;;;;;;;;;4996060;28;20023;-95
2024/03/01 09:00:33;;;;;;;2.08;0.25;;;;;;;;;;4981146;28;20527;-95
2024/03/01 09:03:01;;;;;;;2.25;0.38;;;;;;;;;;4997365;28;20041;-95
2024/03/01 09:05:27;;;;;;;0.95;0.25;;;;;;;;;;4998758;28;20065;-96
2024/03/01 09:07:52;;;;;;;0.20;0.20;;;;;;;;;;4996164;28;20050;-95
2024/03/01 09:10:30;;;;;;;0.40;0.10;;;;;;;;;;4996152;28;20042;-94
2024/03/01 09:12:56;;;;;;;1.45;0.10;;;;;;;;;;4994922;28;20045;-93
2024/03/01 09:15:22;;;;;;;1.05;0.30;;;;;;;;;;4986170;28;20035;-93
2024/03/01 09:17:48;;;;;;;2.28;0.63;;;;;;;;;;4975789;28;20027;-93
2024/03/01 09:20:32;;;;;;;0.82;0.32;;;;;;;;;;4975999;28;20516;-94
2024/03/01 09:22:58;;;;;;;3.22;0.45;;;;;;;;;;4976103;28;20138;-93
2024/03/01 09:25:42;;;;;;;1.85;0.45;;;;;;;;;;4975855;28;20450;-93
2024/03/01 09:28:07;;;;;;;1.90;0.40;;;;;;;;;;4976956;28;20023;-94
2024/03/01 09:30:33;;;;;;;2.00;0.30;;;;;;;;;;4976890;28;20014;-94
2024/03/01 09:32:58;;;;;;;1.95;0.45;;;;;;;;;;4976827;28;20026;-93
2024/03/01 09:35:25;;;;;;;0.88;0.30;;;;;;;;;;4975534;28;20361;-93
2024/03/01 09:37:50;;;;;;;1.83;0.30;;;;;;;;;;4975418;28;20018;-93
2024/03/01 09:40:34;;;;;;;1.08;0.28;;;;;;;;;;4975363;28;20118;-94
2024/03/01 09:43:19;;;;;;;5.50;1.10;;;;;;;;;;4976748;28;20018;-93
2024/03/01 09:45:53;;;;;;;3.97;1.33;;;;;;;;;;4972343;28;20477;-93
2024/03/01 09:48:36;;;;;;;4.18;1.30;;;;;;;;;;4976589;28;20355;-93
2024/03/01 09:51:01;;;;;;;8.73;2.25;;;;;;;;;;4976516;28;20042;-93
2024/03/01 09:53:33;;;;;;;6.40;2.70;;;;;;;;;;4976646;28;20388;-93
2024/03/01 09:56:09;;;;;;;6.20;1.58;;;;;;;;;;4975143;28;20311;-93
2024/03/01 09:58:37;;;;;;;3.90;0.70;;;;;;;;;;4974893;28;20033;-93
2024/03/01 10:01:19;;;;;;;2.33;0.80;;;;;;;;;;4975072;28;20022;-93
2024/03/01 10:03:44;;;;;;;;;;;;;;;;;;4976794;28;20019;-93
2024/03/01 10:06:09;;;;;;;4.45;1.73;;;;;;;;;;4973894;28;20008;-93
2024/03/01 10:08:55;;;;;;;9.43;1.17;;;;;;;;;;4974958;28;20110;-93
2024/03/01 10:11:35;;;;;;;5.88;0.85;;;;;;;;;;4976016;28;20328;-92
2024/03/01 10:14:19;;;;;;;4.45;1.10;;;;;;;;;;4975058;28;20021;-95
2024/03/01 10:17:00;;;;;;;11.32;1.75;;;;;;;;;;4975920;28;20026;-93
2024/03/01 10:19:30;;;;;;;3.65;0.70;;;;;;;;;;4974800;28;20382;-94
2024/03/01 10:22:01;;;;;;;8.77;1.00;;;;;;;;;;4976258;28;20038;-94
2024/03/01 10:24:36;;;;;;;7.80;1.00;;;;;;;;;;4974647;28;20033;-93
2024/03/01 10:27:02;;;;;;;7.50;1.25;;;;;;;;;;4975846;28;20281;-93
2024/03/01 10:29:33;;;;;;;8.52;1.77;;;;;;;;;;4975850;28;20011;-92
2024/03/01 10:32:05;;;;;;;6.13;1.17;;;;;;;;;;4974826;28;20022;-93
2024/03/01 10:34:53;;;;;;;9.82;1.45;;;;;;;;;;4974488;28;20114;-93
2024/03/01 10:37:27;;;;;;;12.25;1.38;;;;;;;;;;4974645;28;20018;-93
2024/03/01 10:40:07;;;;;;;8.18;1.42;;;;;;;;;;4975693;28;20029;-94
2024/03/01 10:42:35;;;;;;;9.80;1.30;;;;;;;;;;4974606;28;20011;-93
2024/03/01 10:45:01;;;;;;;9.50;1.38;;;;;;;;;;4993345;28;20022;-95
2024/03/01 10:47:28;;;;;;;14.38;1.42;;;;;;;;;;4994486;28;20030;-95
2024/03/01 10:50:01;;;;;;;8.13;1.55;;;;;;;;;;4995166;28;20037;-96
2024/03/01 10:52:32;;;;;;;15.55;1.67;;;;;;;;;;4994460;28;20026;-96
2024/03/01 10:54:58;;;;;;;14.95;1.83;;;;;;;;;;4993919;28;20019;-95
2024/03/01 10:57:24;;;;;;;7.80;1.30;;;;;;;;;;4994198;28;20042;-95
2024/03/01 10:59:50;;;;;;;11.38;1.67;;;;;;;;;;4994122;28;20022;-95
2024/03/01 11:02:15;;;;;;;8.00;1.50;;;;;;;;;;4993888;28;20022;-94
2024/03/01 11:04:46;;;;;;;8.53;1.33;;;;;;;;;;4994564;28;20319;-92
2024/03/01 11:07:21;;;;;;;10.32;1.10;;;;;;;;;;4993675;28;20283;-95
2024/03/01 11:09:52;;;;;;;15.68;1.75;;;;;;;;;;4993883;28;20054;-96
2024/03/01 11:12:23;;;;;;;7.78;1.38;;;;;;;;;;4994102;28;20028;-95
2024/03/01 11:14:58;;;;;;;9.23;1.30;;;;;;;;;;4994272;28;20354;-95
2024/03/01 11:17:25;;;;;;;7.10;1.20;;;;;;;;;;4998723;28;20007;-96
2024/03/01 11:19:52;;;;;;;11.02;1.40;;;;;;;;;;4995814;28;20042;-94
2024/03/01 11:22:23;;;;;;;11.10;1.50;;;;;;;;;;4993530;28;20018;-95
2024/03/01 11:25:00;;;;;;;12.90;2.40;;;;;;;;;;4993396;28;20238;-94
2024/03/01 11:27:28;;;;;;;8.10;1.17;;;;;;;;;;4994677;28;20092;-95
2024/03/01 11:30:01;;;;;;;6.38;0.90;;;;;;;;;;4995845;28;20066;-96
2024/03/01 11:32:30;;;;;;;11.27;1.60;;;;;;;;;;4995577;28;20034;-95
2024/03/01 11:34:55;;;;;;;11.07;1.17;;;;;;;;;;4992987;28;20492;-96
2024/03/01 11:37:27;;;;;;;6.40;1.07;;;;;;;;;;4993582;28;20164;-95
2024/03/01 11:40:05;;;;;;;6.47;1.25;;;;;;;;;;4993372;28;20354;-95
2024/03/01 11:42:39;;;;;;;13.07;1.38;;;;;;;;;;4993240;28;20030;-96
2024/03/01 11:45:27;;;;;;;7.15;1.88;;;;;;;;;;4994729;28;20384;-96
2024/03/01 11:47:56;;;;;;;7.30;0.93;;;;;;;;;;5057178;23;20041;-94
2024/03/01 11:50:32;;;;;;;7.85;1.67;;;;;;;;;;5037316;28;20171;-93
2024/03/01 11:52:58;;;;;;;10.27;1.08;;;;;;;;;;5038726;28;20192;-95
2024/03/01 11:55:35;;;;;;;5.32;1.15;;;;;;;;;;5032214;28;20034;-96
2024/03/01 11:58:03;;;;;;;11.00;0.98;;;;;;;;;;5016719;28;20041;-94
2024/03/01 12:00:46;;;;;;;5.97;0.75;;;;;;;;;;5014230;28;20053;-94
2024/03/01 12:03:18;;;;;;;3.58;0.70;;;;;;;;;;5019805;28;20025;-95
2024/03/01 12:06:09;;;;;;;2.38;0.50;;;;;;;;;;5011970;28;20495;-96
2024/03/01 12:08:44;;;;;;;6.60;0.85;;;;;;;;;;5012354;28;20026;-96
2024/03/01 12:11:09;;;;;;;4.28;0.57;;;;;;;;;;5014906;28;20034;-96
2024/03/01 12:13:40;;;;;;;2.78;0.57;;;;;;;;;;5014968;28;20382;-95
2024/03/01 12:16:07;;;;;;;2.97;0.55;;;;;;;;;;5012580;28;20034;-96
2024/03/01 12:18:33;;;;;;;6.63;0.93;;;;;;;;;;5016026;28;20041;-94
2024/03/01 12:21:24;;;;;;;3.15;0.38;;;;;;;;;;5018364;28;20029;-96
2024/03/01 12:24:01;;;;;;;4.03;0.47;;;;;;;;;;5025154;28;20465;-96
2024/03/01 12:26:30;;;;;;;1.42;0.30;;;;;;;;;;5018296;28;20030;-96
2024/03/01 12:29:05;;;;;;;5.20;0.50;;;;;;;;;;5015388;28;20021;-96
2024/03/01 12:37:18;;;;;;;4.63;0.55;;;;;;;;;;5077811;23;20061;-96
2024/03/01 12:39:56;;;;;;;2.97;0.45;;;;;;;;;;5027434;23;20054;-95
2024/03/01 12:45:02;;;;;;;2.47;0.40;;;;;;;;;;5009351;28;20105;-96
2024/03/01 12:47:35;;;;;;;3.35;0.28;;;;;;;;;;4977978;28;20035;-95
2024/03/01 12:50:16;;;;;;;7.35;0.40;;;;;;;;;;4975055;28;20125;-96
2024/03/01 12:52:53;;;;;;;2.78;0.45;;;;;;;;;;4977462;28;20019;-96
2024/03/01 12:55:18;;;;;;;7.65;1.52;;;;;;;;;;4986394;28;20013;-96
2024/03/01 12:57:57;;;;;;;1.98;0.50;;;;;;;;;;4984612;28;20046;-96
2024/03/01 13:00:30;;;;;;;1.70;0.20;;;;;;;;;;4984201;28;20073;-96
2024/03/01 13:02:59;;;;;;;2.88;0.30;;;;;;;;;;4984071;28;20034;-96
2024/03/01 13:05:40;;;;;;;7.95;1.63;;;;;;;;;;4986274;28;20023;-96
2024/03/01 13:08:10;;;;;;;;;;;;;;;;;;4981247;28;20106;-95
2024/03/01 13:10:37;;;;;;;2.40;0.30;;;;;;;;;;4980793;28;19920;-96
2024/03/01 13:13:16;;;;;;;5.10;0.47;;;;;;;;;;4984456;28;20389;-96
2024/03/01 13:15:49;;;;;;;1.98;0.40;;;;;;;;;;4989134;28;20038;-96
2024/03/01 13:18:19;;;;;;;3.65;0.47;;;;;;;;;;4966550;28;20035;-96
2024/03/01 13:20:48;;;;;;;4.68;0.40;;;;;;;;;;4982251;28;20023;-96
2024/03/01 13:26:17;;;;;;;5.78;0.45;;;;;;;;;;5562240;23;20050;-96
2024/03/01 13:28:48;;;;;;;3.00;0.60;;;;;;;;;;5046239;28;20036;-96
2024/03/01 13:31:15;;;;;;;1.80;0.30;;;;;;;;;;5035273;28;20511;-96
2024/03/01 13:33:46;;;;;;;6.05;0.80;;;;;;;;;;5035021;28;20086;-94
2024/03/01 13:36:14;;;;;;;8.25;0.70;;;;;;;;;;5004995;28;20018;-94
2024/03/01 13:39:15;;;;;;;4.13;0.70;;;;;;;;;;4995778;28;20085;-95
2024/03/01 13:41:52;;;;;;;3.60;0.43;;;;;;;;;;5016301;28;20103;-96
2024/03/01 13:44:30;;;;;;;3.40;0.30;;;;;;;;;;5011255;28;20025;-95
2024/03/01 13:47:13;;;;;;;7.22;0.88;;;;;;;;;;5014222;28;20496;-96
2024/03/01 13:49:39;;;;;;;5.32;0.98;;;;;;;;;;5015799;28;20021;-95
2024/03/01 13:52:07;;;;;;;4.40;0.80;;;;;;;;;;5015271;28;20030;-95
2024/03/01 13:54:35;;;;;;;2.60;0.30;;;;;;;;;;5015017;28;20025;-95
2024/03/01 13:57:03;;;;;;;4.68;0.70;;;;;;;;;;5014322;28;20022;-95
2024/03/01 13:59:28;;;;;;;5.97;0.82;;;;;;;;;;5015364;28;20534;-95
2024/03/01 14:01:53;;;;;;;2.30;1.65;;;;;;;;;;5015147;28;20026;-95
2024/03/01 14:04:18;;;;;;;3.45;1.25;;;;;;;;;;5015120;28;20518;-96
2024/03/01 14:06:45;;;;;;;4.57;0.50;;;;;;;;;;5014935;28;20040;-96
2024/03/01 14:09:12;;;;;;;3.67;1.02;;;;;;;;;;5014625;28;20248;-94
2024/03/01 14:11:37;;;;;;;1.75;0.38;;;;;;;;;;5014855;28;20022;-94
2024/03/01 14:14:04;;;;;;;5.47;0.70;;;;;;;;;;5014598;28;20024;-95
2024/03/01 14:16:32;;;;;;;1.65;0.60;;;;;;;;;;5015041;28;20113;-94
2024/03/01 14:18:57;;;;;;;6.05;0.70;;;;;;;;;;5015011;28;20028;-95
2024/03/01 14:21:24;;;;;;;4.32;0.50;;;;;;;;;;5015016;28;20041;-95
2024/03/01 14:23:51;;;;;;;3.88;0.95;;;;;;;;;;5014459;28;20476;-95
2024/03/01 14:26:16;;;;;;;11.25;1.30;;;;;;;;;;5014480;28;20033;-96
2024/03/01 14:28:45;;;;;;;4.65;0.90;;;;;;;;;;5014700;28;20028;-95
2024/03/01 14:31:10;;;;;;;4.88;0.60;;;;;;;;;;5014589;28;20030;-95
2024/03/01 14:33:36;;;;;;;4.35;0.75;;;;;;;;;;5014502;28;20096;-95
2024/03/01 14:36:04;;;;;;;4.88;0.55;;;;;;;;;;5014281;28;20438;-95
2024/03/01 14:38:29;;;;;;;4.32;0.77;;;;;;;;;;5013990;28;20506;-95
2024/03/01 14:40:55;;;;;;;5.28;0.70;;;;;;;;;;5015803;28;20022;-95
2024/03/01 14:43:21;;;;;;;6.50;1.25;;;;;;;;;;5014400;28;20026;-96
2024/03/01 14:45:47;;;;;;;5.60;0.70;;;;;;;;;;5014113;28;20026;-94
2024/03/01 14:48:22;;;;;;;8.02;0.80;;;;;;;;;;5014205;28;20017;-94
2024/03/01 14:50:56;;;;;;;12.70;1.00;;;;;;;;;;5013322;28;20021;-92
2024/03/01 14:53:37;;;;;;;8.80;0.88;;;;;;;;;;5013197;28;20026;-94
2024/03/01 14:56:06;;;;;;;7.63;1.10;;;;;;;;;;5013752;28;20471;-94
2024/03/01 14:58:32;;;;;;;6.93;2.03;;;;;;;;;;5013521;28;20029;-93
2024/03/01 15:00:57;;;;;;;5.57;1.13;;;;;;;;;;5013551;28;20026;-94
2024/03/01 15:03:23;;;;;;;6.40;1.13;;;;;;;;;;5013157;28;20025;-94